Time;durP1;ratioP1;P1;durP2;ratioP2;P2;SDS_P1;SDS_P2;PMS_P1;PMS_P2;Temp;Humidity;BMP_temperature;BMP_pressure;BME280_temperature;BME280_humidity;BME280_pressure;Samples;Min_cycle;Max_cycle;Signal;HPM_P1;HPM_P2
2022/06/28 00:00:08;;;;;;;;;;;11.30;99.90;;;;;;5016004;28;19972;-75
2022/06/28 00:02:35;;;;;;;;;;;11.40;99.90;;;;;;5015716;28;20004;-78
2022/06/28 00:05:02;;;;;;;;;;;11.50;99.90;;;;;;5015922;28;19913;-79
2022/06/28 00:07:29;;;;;;;;;;;11.60;99.90;;;;;;5015771;28;20004;-78
2022/06/28 00:09:55;;;;;;;;;;;11.70;99.90;;;;;;5015823;28;19909;-78
2022/06/28 00:12:22;;;;;;;;;;;11.80;99.90;;;;;;5015702;28;20475;-77
2022/06/28 00:17:34;;;;;;;;;;;12.20;99.90;;;;;;5015374;28;19924;-78
2022/06/28 00:20:00;;;;;;;;;;;12.50;99.90;;;;;;5015652;28;19913;-77
2022/06/28 00:22:27;;;;;;;;;;;12.70;99.90;;;;;;5015459;28;20383;-79
2022/06/28 00:24:54;;;;;;;;;;;12.70;99.90;;;;;;5015566;28;19916;-78
2022/06/28 00:27:20;;;;;;;;;;;12.80;99.90;;;;;;5015410;28;19913;-80
2022/06/28 00:29:47;;;;;;;;;;;12.80;99.90;;;;;;5015141;28;20011;-77
2022/06/28 00:32:14;;;;;;;;;;;12.60;99.90;;;;;;5015006;28;20260;-78
2022/06/28 00:34:41;;;;;;;;;;;12.70;99.90;;;;;;5015232;28;19910;-76
2022/06/28 00:37:07;;;;;;;;;;;12.70;99.90;;;;;;5015282;28;19913;-77
2022/06/28 00:39:34;;;;;;;;;;;12.80;99.90;;;;;;5014368;28;19956;-77
2022/06/28 00:42:01;;;;;;;;;;;12.80;99.90;;;;;;5015088;28;20357;-75
2022/06/28 00:44:28;;;;;;;;;;;12.90;99.90;;;;;;5015064;28;20356;-78
2022/06/28 00:46:55;;;;;;;;;;;13.00;99.90;;;;;;5014892;28;19913;-77
2022/06/28 00:49:22;;;;;;;;;;;13.00;99.90;;;;;;5014933;28;19974;-79
2022/06/28 00:51:49;;;;;;;;;;;13.20;99.90;;;;;;5014836;28;19988;-79
2022/06/28 00:54:15;;;;;;;;;;;13.10;99.90;;;;;;5014755;28;20249;-77
2022/06/28 00:56:42;;;;;;;;;;;13.10;99.90;;;;;;5014619;28;20022;-77
2022/06/28 00:59:09;;;;;;;;;;;13.10;99.90;;;;;;5014818;28;19913;-78
2022/06/28 01:01:35;;;;;;;;;;;13.10;99.90;;;;;;5014629;28;19913;-77
2022/06/28 01:04:02;;;;;;;;;;;13.30;99.90;;;;;;5014687;28;19909;-76
2022/06/28 01:06:29;;;;;;;;;;;13.40;99.90;;;;;;5014676;28;20328;-78
2022/06/28 01:08:56;;;;;;;;;;;13.60;99.90;;;;;;5014617;28;19972;-77
2022/06/28 01:11:22;;;;;;;;;;;13.50;99.90;;;;;;5014532;28;19915;-77
2022/06/28 01:13:50;;;;;;;;;;;13.50;99.90;;;;;;5013913;28;19910;-76
2022/06/28 01:16:17;;;;;;;;;;;13.60;99.90;;;;;;5014345;28;19909;-77
2022/06/28 01:18:44;;;;;;;;;;;13.80;99.90;;;;;;5014365;28;19917;-76
2022/06/28 01:21:15;;;;;;;;;;;13.90;99.90;;;;;;5014458;28;19948;-78
2022/06/28 01:23:46;;;;;;;;;;;13.90;99.90;;;;;;5014071;28;19910;-77
2022/06/28 01:26:13;;;;;;;;;;;13.90;99.90;;;;;;5014191;28;19916;-73
2022/06/28 01:28:41;;;;;;;;;;;13.90;99.90;;;;;;5014085;28;19910;-76
2022/06/28 01:31:08;;;;;;;;;;;13.80;99.90;;;;;;5014056;28;19916;-77
2022/06/28 01:33:37;;;;;;;;;;;13.80;99.90;;;;;;5013670;28;19913;-75
2022/06/28 01:36:07;;;;;;;;;;;13.80;99.90;;;;;;5013836;28;19914;-74
2022/06/28 01:38:35;;;;;;;;;;;13.90;99.90;;;;;;5013831;28;19922;-76
2022/06/28 01:41:02;;;;;;;;;;;13.90;99.90;;;;;;5013965;28;19915;-75
2022/06/28 01:43:30;;;;;;;;;;;13.80;99.90;;;;;;5013605;28;19921;-77
2022/06/28 01:45:57;;;;;;;;;;;13.80;99.90;;;;;;5013642;28;20312;-77
2022/06/28 01:48:24;;;;;;;;;;;13.90;99.90;;;;;;5013293;28;20045;-78
2022/06/28 01:50:52;;;;;;;;;;;13.90;99.90;;;;;;5012748;28;20316;-78
2022/06/28 01:53:20;;;;;;;;;;;14.00;99.90;;;;;;5013600;28;20245;-77
2022/06/28 01:55:47;;;;;;;;;;;14.30;99.90;;;;;;5013001;28;19917;-76
2022/06/28 01:58:14;;;;;;;;;;;14.20;99.90;;;;;;5013670;28;19917;-78
2022/06/28 02:00:40;;;;;;;;;;;14.10;99.90;;;;;;5013581;28;19952;-75
2022/06/28 02:03:07;;;;;;;;;;;13.90;99.90;;;;;;5013594;28;19909;-77
2022/06/28 02:05:34;;;;;;;;;;;13.80;99.90;;;;;;5028484;28;19917;-74
2022/06/28 02:08:01;;;;;;;;;;;13.80;99.90;;;;;;5013385;28;19964;-76
2022/06/28 02:10:28;;;;;;;;;;;13.90;99.90;;;;;;5013454;28;19915;-76
2022/06/28 02:12:55;;;;;;;;;;;13.90;99.90;;;;;;5013353;28;19920;-76
2022/06/28 02:15:22;;;;;;;;;;;13.90;99.90;;;;;;5013446;28;19910;-77
2022/06/28 02:17:48;;;;;;;;;;;14.00;99.90;;;;;;5012975;28;19917;-76
2022/06/28 02:20:15;;;;;;;;;;;14.00;99.90;;;;;;5013367;28;19946;-76
2022/06/28 02:22:42;;;;;;;;;;;14.00;99.90;;;;;;5013241;28;19917;-76
2022/06/28 02:25:09;;;;;;;;;;;13.90;99.90;;;;;;5013409;28;19909;-76
2022/06/28 02:27:35;;;;;;;;;;;13.80;99.90;;;;;;5013122;28;19916;-77
2022/06/28 02:30:02;;;;;;;;;;;13.80;99.90;;;;;;5013367;28;19910;-77
2022/06/28 02:32:29;;;;;;;;;;;13.80;99.90;;;;;;5013199;28;19980;-76
2022/06/28 02:40:25;;;;;;;;;;;13.70;99.90;;;;;;5013346;28;20284;-80
2022/06/28 02:42:53;;;;;;;;;;;13.60;99.90;;;;;;5013128;28;20425;-76
2022/06/28 02:45:20;;;;;;;;;;;13.50;99.90;;;;;;5013180;28;19910;-78
2022/06/28 02:47:47;;;;;;;;;;;13.50;99.90;;;;;;5012582;28;19913;-76
2022/06/28 02:50:14;;;;;;;;;;;13.40;99.90;;;;;;5013120;28;19909;-78
2022/06/28 02:52:40;;;;;;;;;;;13.50;99.90;;;;;;5013131;28;19916;-77
2022/06/28 02:55:08;;;;;;;;;;;13.50;99.90;;;;;;5012919;28;19918;-75
2022/06/28 02:57:35;;;;;;;;;;;13.60;99.90;;;;;;5012936;28;19921;-77
2022/06/28 03:00:03;;;;;;;;;;;13.60;99.90;;;;;;5012943;28;20008;-76
2022/06/28 03:02:30;;;;;;;;;;;13.50;99.90;;;;;;5014656;28;19917;-76
2022/06/28 03:04:56;;;;;;;;;;;13.50;99.90;;;;;;5016911;28;19917;-76
2022/06/28 03:07:23;;;;;;;;;;;13.40;99.90;;;;;;5016905;28;19955;-76
2022/06/28 03:09:50;;;;;;;;;;;13.40;99.90;;;;;;5016614;28;19923;-75
2022/06/28 03:12:17;;;;;;;;;;;13.30;99.90;;;;;;5016800;28;19910;-77
2022/06/28 03:14:43;;;;;;;;;;;13.30;99.90;;;;;;5016597;28;20426;-77
2022/06/28 03:17:10;;;;;;;;;;;13.40;99.90;;;;;;5016493;28;19920;-77
2022/06/28 03:19:37;;;;;;;;;;;13.40;99.90;;;;;;5016479;28;20418;-76
2022/06/28 03:22:04;;;;;;;;;;;13.40;99.90;;;;;;5016748;28;19917;-78
2022/06/28 03:24:30;;;;;;;;;;;13.40;99.90;;;;;;5016509;28;20033;-79
2022/06/28 03:26:57;;;;;;;;;;;13.40;99.90;;;;;;5016447;28;20396;-77
2022/06/28 03:29:24;;;;;;;;;;;13.50;99.90;;;;;;5016386;28;19917;-78
2022/06/28 03:31:50;;;;;;;;;;;13.50;99.90;;;;;;5015953;28;19968;-78
2022/06/28 03:34:19;;;;;;;;;;;13.60;99.90;;;;;;5016318;28;19909;-77
2022/06/28 03:36:50;;;;;;;;;;;13.50;99.90;;;;;;5016382;28;19910;-76
2022/06/28 03:39:17;;;;;;;;;;;13.60;99.90;;;;;;5016342;28;20004;-76
2022/06/28 03:41:44;;;;;;;;;;;13.60;99.90;;;;;;5016053;28;19992;-77
2022/06/28 03:44:10;;;;;;;;;;;13.60;99.90;;;;;;5015972;28;19910;-77
2022/06/28 03:46:37;;;;;;;;;;;13.70;99.90;;;;;;5015865;28;20542;-77
2022/06/28 03:49:04;;;;;;;;;;;13.80;99.90;;;;;;5016156;28;19909;-78
2022/06/28 03:51:30;;;;;;;;;;;13.70;99.90;;;;;;5016030;28;20351;-75
2022/06/28 03:53:58;;;;;;;;;;;13.70;99.90;;;;;;5016149;28;19963;-76
2022/06/28 03:56:26;;;;;;;;;;;13.70;99.90;;;;;;5015787;28;19984;-77
2022/06/28 03:58:52;;;;;;;;;;;13.80;99.90;;;;;;5015939;28;20384;-76
2022/06/28 04:01:19;;;;;;;;;;;13.80;99.90;;;;;;5015820;28;19910;-77
2022/06/28 04:03:46;;;;;;;;;;;13.80;99.90;;;;;;5015699;28;19948;-74
2022/06/28 04:06:13;;;;;;;;;;;13.90;99.90;;;;;;5015904;28;19988;-77
2022/06/28 04:08:40;;;;;;;;;;;14.00;99.90;;;;;;5015805;28;19909;-77
2022/06/28 04:11:16;;;;;;;;;;;13.90;99.90;;;;;;5015660;28;19911;-77
2022/06/28 04:13:50;;;;;;;;;;;13.90;99.90;;;;;;5014603;28;19913;-75
2022/06/28 04:16:17;;;;;;;;;;;13.70;99.90;;;;;;5015955;28;20257;-77
2022/06/28 04:18:44;;;;;;;;;;;13.70;99.90;;;;;;5015456;28;20361;-77
2022/06/28 04:21:11;;;;;;;;;;;13.60;99.90;;;;;;5015639;28;19928;-77
2022/06/28 04:23:38;;;;;;;;;;;13.70;99.90;;;;;;5015239;28;19909;-77
2022/06/28 04:26:05;;;;;;;;;;;13.80;99.90;;;;;;5015413;28;19910;-74
2022/06/28 04:28:34;;;;;;;;;;;14.00;99.90;;;;;;5015343;28;20012;-74
2022/06/28 04:31:01;;;;;;;;;;;14.10;99.90;;;;;;5015330;28;20277;-74
2022/06/28 04:33:28;;;;;;;;;;;14.00;99.90;;;;;;5015397;28;19914;-77
2022/06/28 04:35:55;;;;;;;;;;;13.90;99.90;;;;;;5015221;28;19920;-74
2022/06/28 04:38:22;;;;;;;;;;;13.90;99.90;;;;;;5015311;28;20272;-73
2022/06/28 04:40:49;;;;;;;;;;;13.90;99.90;;;;;;5015379;28;20464;-76
2022/06/28 04:43:16;;;;;;;;;;;14.00;99.90;;;;;;5015248;28;19963;-74
2022/06/28 04:45:43;;;;;;;;;;;14.00;99.90;;;;;;5014966;28;20000;-74
2022/06/28 04:48:09;;;;;;;;;;;13.90;99.90;;;;;;5015156;28;20356;-75
2022/06/28 04:50:36;;;;;;;;;;;14.00;99.90;;;;;;5015141;28;19909;-73
2022/06/28 04:53:03;;;;;;;;;;;14.00;99.90;;;;;;5015256;28;19910;-77
2022/06/28 04:55:29;;;;;;;;;;;14.00;99.90;;;;;;5014710;28;20373;-73
2022/06/28 04:57:56;;;;;;;;;;;14.00;99.90;;;;;;5015095;28;19961;-74
2022/06/28 05:00:23;;;;;;;;;;;13.90;99.90;;;;;;5017109;28;19910;-73
2022/06/28 05:02:50;;;;;;;;;;;13.90;99.90;;;;;;5014996;28;19909;-74
2022/06/28 05:05:17;;;;;;;;;;;13.90;99.90;;;;;;5014875;28;19910;-73
2022/06/28 05:07:43;;;;;;;;;;;13.90;99.90;;;;;;5014440;28;20353;-73
2022/06/28 05:10:10;;;;;;;;;;;13.70;99.90;;;;;;5014877;28;19915;-73
2022/06/28 05:12:37;;;;;;;;;;;13.60;99.90;;;;;;5014708;28;19962;-74
2022/06/28 05:15:04;;;;;;;;;;;13.60;99.90;;;;;;5014581;28;19909;-73
2022/06/28 05:17:31;;;;;;;;;;;13.50;99.90;;;;;;5014275;28;19952;-73
2022/06/28 05:19:57;;;;;;;;;;;13.50;99.90;;;;;;5014397;28;20387;-74
2022/06/28 05:22:24;;;;;;;;;;;13.50;99.90;;;;;;5014595;28;19914;-73
2022/06/28 05:24:51;;;;;;;;;;;13.50;99.90;;;;;;5014251;28;19910;-74
2022/06/28 05:27:18;;;;;;;;;;;13.50;99.90;;;;;;5014337;28;19914;-72
2022/06/28 05:29:44;;;;;;;;;;;13.50;99.90;;;;;;5014146;28;19913;-73
2022/06/28 05:32:11;;;;;;;;;;;13.50;99.90;;;;;;5014224;28;19916;-73
2022/06/28 05:34:38;;;;;;;;;;;13.50;99.90;;;;;;5014293;28;19909;-72
2022/06/28 05:37:05;;;;;;;;;;;13.60;99.90;;;;;;5014316;28;19937;-73
2022/06/28 05:39:32;;;;;;;;;;;13.60;99.90;;;;;;5014033;28;19961;-73
2022/06/28 05:41:59;;;;;;;;;;;13.50;99.90;;;;;;5014178;28;19909;-74
2022/06/28 05:44:25;;;;;;;;;;;13.60;99.90;;;;;;5014476;28;20319;-73
2022/06/28 05:46:52;;;;;;;;;;;13.60;99.90;;;;;;5013812;28;19910;-74
2022/06/28 05:49:19;;;;;;;;;;;13.60;99.90;;;;;;5014008;28;20064;-73
2022/06/28 05:51:45;;;;;;;;;;;13.60;99.90;;;;;;5013857;28;20276;-73
2022/06/28 05:54:12;;;;;;;;;;;13.60;99.90;;;;;;5013550;28;19928;-73
2022/06/28 05:56:39;;;;;;;;;;;13.60;99.90;;;;;;5013711;28;19922;-73
2022/06/28 05:59:06;;;;;;;;;;;13.60;99.90;;;;;;5013891;28;20264;-73
2022/06/28 06:01:32;;;;;;;;;;;13.60;99.90;;;;;;5013318;28;19913;-73
2022/06/28 06:03:59;;;;;;;;;;;13.60;99.90;;;;;;5013633;28;19909;-73
2022/06/28 06:06:26;;;;;;;;;;;13.60;99.90;;;;;;5013861;28;19910;-73
2022/06/28 06:08:53;;;;;;;;;;;13.60;99.90;;;;;;5013745;28;19995;-73
2022/06/28 06:11:20;;;;;;;;;;;13.60;99.90;;;;;;5013602;28;20335;-73
2022/06/28 06:13:46;;;;;;;;;;;13.60;99.90;;;;;;5013423;28;19910;-74
2022/06/28 06:16:13;;;;;;;;;;;13.70;99.90;;;;;;5013390;28;19948;-73
2022/06/28 06:18:40;;;;;;;;;;;13.70;99.90;;;;;;5013411;28;19962;-73
2022/06/28 06:21:08;;;;;;;;;;;13.70;99.90;;;;;;5013358;28;19916;-73
2022/06/28 06:23:34;;;;;;;;;;;13.70;99.90;;;;;;5013151;28;19956;-73
2022/06/28 06:26:02;;;;;;;;;;;13.60;99.90;;;;;;5013579;28;19916;-72
2022/06/28 06:28:28;;;;;;;;;;;13.60;99.90;;;;;;5013366;28;19952;-73
2022/06/28 06:30:55;;;;;;;;;;;13.60;99.90;;;;;;5013230;28;19909;-72
2022/06/28 06:33:22;;;;;;;;;;;13.50;99.90;;;;;;5012903;28;19910;-72
2022/06/28 06:35:48;;;;;;;;;;;13.50;99.90;;;;;;5012964;28;19964;-73
2022/06/28 06:38:15;;;;;;;;;;;13.50;99.90;;;;;;5016328;28;19971;-72
2022/06/28 06:40:42;;;;;;;;;;;13.40;99.90;;;;;;5017281;28;19909;-72
2022/06/28 06:43:09;;;;;;;;;;;13.40;99.90;;;;;;5017466;28;19910;-72
2022/06/28 06:45:35;;;;;;;;;;;13.40;99.90;;;;;;5032029;28;20352;-73
2022/06/28 06:48:02;;;;;;;;;;;13.40;99.90;;;;;;5017196;28;19910;-74
2022/06/28 06:50:29;;;;;;;;;;;13.40;99.90;;;;;;5016863;28;19910;-73
2022/06/28 06:52:55;;;;;;;;;;;13.40;99.90;;;;;;5015858;28;19909;-73
2022/06/28 06:55:22;;;;;;;;;;;13.20;99.90;;;;;;5016446;28;19928;-74
2022/06/28 06:57:49;;;;;;;;;;;12.90;99.90;;;;;;5016514;28;19913;-74
2022/06/28 07:00:16;;;;;;;;;;;12.80;99.90;;;;;;5016731;28;20000;-74
2022/06/28 07:02:43;;;;;;;;;;;12.50;99.90;;;;;;5032082;28;20399;-73
2022/06/28 07:05:11;;;;;;;;;;;12.40;99.90;;;;;;5016863;28;19997;-75
2022/06/28 07:07:39;;;;;;;;;;;12.30;99.90;;;;;;5014440;28;19913;-75
2022/06/28 07:10:06;;;;;;;;;;;12.10;99.90;;;;;;5014586;28;20000;-73
2022/06/28 07:12:32;;;;;;;;;;;12.00;99.90;;;;;;5014546;28;19995;-73
2022/06/28 07:14:59;;;;;;;;;;;12.00;99.90;;;;;;5014490;28;19939;-74
2022/06/28 07:17:26;;;;;;;;;;;12.00;99.90;;;;;;5014286;28;19914;-74
2022/06/28 07:19:52;;;;;;;;;;;12.00;99.90;;;;;;5014069;28;19910;-73
2022/06/28 07:22:19;;;;;;;;;;;12.00;99.90;;;;;;5014411;28;19917;-73
2022/06/28 07:24:46;;;;;;;;;;;12.00;99.90;;;;;;5029429;28;19960;-75
2022/06/28 07:27:13;;;;;;;;;;;12.00;99.90;;;;;;5014409;28;19958;-73
2022/06/28 07:29:39;;;;;;;;;;;11.90;99.90;;;;;;5014088;28;19925;-73
2022/06/28 07:32:06;;;;;;;;;;;11.90;99.90;;;;;;5014409;28;19909;-73
2022/06/28 07:34:33;;;;;;;;;;;11.90;99.90;;;;;;5013952;28;20370;-74
2022/06/28 07:37:00;;;;;;;;;;;11.90;99.90;;;;;;5014028;28;19941;-74
2022/06/28 07:39:27;;;;;;;;;;;11.90;99.90;;;;;;5014228;28;19921;-75
2022/06/28 07:41:53;;;;;;;;;;;11.90;99.90;;;;;;5013963;28;20308;-74
2022/06/28 07:44:20;;;;;;;;;;;11.90;99.90;;;;;;5029184;28;19916;-74
2022/06/28 07:46:47;;;;;;;;;;;12.00;99.90;;;;;;5028519;28;19964;-74
2022/06/28 07:49:14;;;;;;;;;;;12.00;99.90;;;;;;5013860;28;19914;-74
2022/06/28 07:54:25;;;;;;;;;;;11.90;99.90;;;;;;5014229;28;19920;-77
2022/06/28 07:56:52;;;;;;;;;;;11.90;99.90;;;;;;5013548;28;19921;-77
2022/06/28 07:59:19;;;;;;;;;;;11.80;99.90;;;;;;5013438;28;19956;-78
2022/06/28 08:01:46;;;;;;;;;;;11.70;99.90;;;;;;5013405;28;19909;-77
2022/06/28 08:04:14;;;;;;;;;;;11.60;99.90;;;;;;5013645;28;19955;-77
2022/06/28 08:06:41;;;;;;;;;;;11.60;99.90;;;;;;5013654;28;20027;-78
2022/06/28 08:09:08;;;;;;;;;;;11.50;99.90;;;;;;5013677;28;19988;-77
2022/06/28 08:11:35;;;;;;;;;;;11.50;99.90;;;;;;5013345;28;19924;-77
2022/06/28 08:14:01;;;;;;;;;;;11.50;99.90;;;;;;5013157;28;19914;-77
2022/06/28 08:16:28;;;;;;;;;;;11.50;99.90;;;;;;5013390;28;19917;-78
2022/06/28 08:18:55;;;;;;;;;;;11.50;99.90;;;;;;5013202;28;20008;-78
2022/06/28 08:21:21;;;;;;;;;;;11.50;99.90;;;;;;5013484;28;19914;-78
2022/06/28 08:23:48;;;;;;;;;;;11.60;99.90;;;;;;5013119;28;20360;-77
2022/06/28 08:26:15;;;;;;;;;;;11.60;99.90;;;;;;4998370;28;20007;-77
2022/06/28 08:28:42;;;;;;;;;;;11.60;99.90;;;;;;4993484;28;19984;-77
2022/06/28 08:31:08;;;;;;;;;;;11.60;99.90;;;;;;4993644;28;19914;-77
2022/06/28 08:33:35;;;;;;;;;;;11.60;99.90;;;;;;4993363;28;19917;-77
2022/06/28 08:36:02;;;;;;;;;;;11.60;99.90;;;;;;4993667;28;20246;-77
2022/06/28 08:38:28;;;;;;;;;;;11.50;99.90;;;;;;4993129;28;19918;-75
2022/06/28 08:40:58;;;;;;;;;;;11.50;99.90;;;;;;4993748;28;19945;-78
2022/06/28 08:43:24;;;;;;;;;;;11.40;99.90;;;;;;4993592;28;20000;-77
2022/06/28 08:45:51;;;;;;;;;;;11.40;99.90;;;;;;4993275;28;20004;-78
2022/06/28 08:48:21;;;;;;;;;;;11.50;99.90;;;;;;4993542;28;20368;-77
2022/06/28 08:50:51;;;;;;;;;;;11.50;99.90;;;;;;4993277;28;19914;-77
2022/06/28 08:53:19;;;;;;;;;;;11.50;99.90;;;;;;4993470;28;19914;-78
2022/06/28 08:55:47;;;;;;;;;;;11.50;99.90;;;;;;4992965;28;19922;-78
2022/06/28 08:58:15;;;;;;;;;;;11.50;99.90;;;;;;4993298;28;19917;-77
2022/06/28 09:00:41;;;;;;;;;;;11.50;99.90;;;;;;4992641;28;20633;-78
2022/06/28 09:03:08;;;;;;;;;;;11.50;99.90;;;;;;4993402;28;19916;-77
2022/06/28 09:05:35;;;;;;;;;;;11.50;99.90;;;;;;4992587;28;20276;-78
2022/06/28 09:08:01;;;;;;;;;;;11.50;99.90;;;;;;4993052;28;19911;-76
2022/06/28 09:10:31;;;;;;;;;;;11.50;99.90;;;;;;4993159;28;19910;-77
2022/06/28 09:13:14;;;;;;;;;;;11.50;99.90;;;;;;4993073;28;19948;-77
2022/06/28 09:15:46;;;;;;;;;;;11.40;99.90;;;;;;4992643;28;20004;-77
2022/06/28 09:18:12;;;;;;;;;;;11.30;99.90;;;;;;4992619;28;19929;-76
2022/06/28 09:20:39;;;;;;;;;;;11.30;99.90;;;;;;4992926;28;19914;-77
2022/06/28 09:23:26;;;;;;;;;;;11.40;99.90;;;;;;4992882;28;20009;-76
2022/06/28 09:25:54;;;;;;;;;;;11.30;99.90;;;;;;4992441;28;19910;-76
2022/06/28 09:28:28;;;;;;;;;;;11.30;99.90;;;;;;4992804;28;19937;-77
2022/06/28 09:31:16;;;;;;;;;;;11.30;99.90;;;;;;4992312;28;19968;-77
2022/06/28 09:33:44;;;;;;;;;;;11.30;99.90;;;;;;4992474;28;19910;-76
2022/06/28 09:36:12;;;;;;;;;;;11.30;99.90;;;;;;4992464;28;19910;-77
2022/06/28 09:38:39;;;;;;;;;;;11.30;99.90;;;;;;4992442;28;20012;-77
2022/06/28 09:41:05;;;;;;;;;;;11.30;99.90;;;;;;4992517;28;19910;-77
2022/06/28 09:43:34;;;;;;;;;;;11.20;99.90;;;;;;4992069;28;20288;-77
2022/06/28 09:46:04;;;;;;;;;;;11.20;99.90;;;;;;5007447;28;19920;-77
2022/06/28 09:48:37;;;;;;;;;;;11.20;99.90;;;;;;4992332;28;19914;-77
2022/06/28 09:51:04;;;;;;;;;;;11.20;99.90;;;;;;4992264;28;19933;-77
2022/06/28 09:53:35;;;;;;;;;;;11.20;99.90;;;;;;4992015;28;19921;-76
2022/06/28 09:56:05;;;;;;;;;;;11.20;99.90;;;;;;4992002;28;19940;-75
2022/06/28 09:58:33;;;;;;;;;;;11.20;99.90;;;;;;4992266;28;19972;-74
2022/06/28 10:01:00;;;;;;;;;;;11.10;99.90;;;;;;4992187;28;19909;-75
2022/06/28 10:03:27;;;;;;;;;;;11.10;99.90;;;;;;4992283;28;20288;-74
2022/06/28 10:05:55;;;;;;;;;;;11.10;99.90;;;;;;4992058;28;20418;-75
2022/06/28 10:08:22;;;;;;;;;;;11.10;99.90;;;;;;4992250;28;19956;-76
2022/06/28 10:10:50;;;;;;;;;;;11.20;99.90;;;;;;4991643;28;19914;-74
2022/06/28 10:16:10;;;;;;;;;;;11.10;99.90;;;;;;4992010;28;19921;-77
2022/06/28 10:18:38;;;;;;;;;;;11.10;99.90;;;;;;4992257;28;20017;-77
2022/06/28 10:21:05;;;;;;;;;;;11.00;99.90;;;;;;4992587;28;20365;-77
2022/06/28 10:23:37;;;;;;;;;;;11.00;99.90;;;;;;4991635;28;19913;-76
2022/06/28 10:26:07;;;;;;;;;;;11.00;99.90;;;;;;4991137;28;19914;-75
2022/06/28 10:28:43;;;;;;;;;;;11.00;99.90;;;;;;4992077;28;20000;-76
2022/06/28 10:31:25;;;;;;;;;;;11.00;99.90;;;;;;4991723;28;20412;-76
2022/06/28 10:33:53;;;;;;;;;;;11.00;99.90;;;;;;4991360;28;19910;-77
2022/06/28 10:36:22;;;;;;;;;;;11.00;99.90;;;;;;4991635;28;19921;-77
2022/06/28 10:39:09;;;;;;;;;;;11.10;99.90;;;;;;4991555;28;19925;-76
2022/06/28 10:41:36;;;;;;;;;;;11.10;99.90;;;;;;4991455;28;19917;-75
2022/06/28 10:44:10;;;;;;;;;;;11.10;99.90;;;;;;4991504;28;19913;-76
2022/06/28 10:46:37;;;;;;;;;;;11.10;99.90;;;;;;4991608;28;19959;-76
2022/06/28 10:49:08;;;;;;;;;;;11.20;99.90;;;;;;4991028;28;19956;-76
2022/06/28 10:51:36;;;;;;;;;;;11.10;99.90;;;;;;4991335;28;20288;-75
2022/06/28 10:54:04;;;;;;;;;;;11.20;99.90;;;;;;4991530;28;19914;-76
2022/06/28 10:56:35;;;;;;;;;;;11.20;99.90;;;;;;4991239;28;20427;-75
2022/06/28 10:59:25;;;;;;;;;;;11.20;99.90;;;;;;5006397;28;19925;-77
2022/06/28 11:01:52;;;;;;;;;;;11.20;99.90;;;;;;4992755;28;19972;-75
2022/06/28 11:04:19;;;;;;;;;;;11.20;99.90;;;;;;4991476;28;19914;-76
2022/06/28 11:06:50;;;;;;;;;;;11.10;99.90;;;;;;4991387;28;19953;-76
2022/06/28 11:09:35;;;;;;;;;;;11.10;99.90;;;;;;4991496;28;19953;-76
2022/06/28 11:12:05;;;;;;;;;;;11.10;99.90;;;;;;4991251;28;19957;-76
2022/06/28 11:14:52;;;;;;;;;;;11.20;99.90;;;;;;4991030;28;19910;-77
2022/06/28 11:17:20;;;;;;;;;;;11.10;99.90;;;;;;5006067;28;19942;-75
2022/06/28 11:19:52;;;;;;;;;;;11.20;99.90;;;;;;5006073;28;20319;-76
2022/06/28 11:22:20;;;;;;;;;;;11.20;99.90;;;;;;4991343;28;20367;-76
2022/06/28 11:24:47;;;;;;;;;;;11.10;99.90;;;;;;4995480;28;20258;-75
2022/06/28 11:27:20;;;;;;;;;;;11.10;99.90;;;;;;4994502;28;19915;-75
2022/06/28 11:29:48;;;;;;;;;;;11.10;99.90;;;;;;4994685;28;19910;-76
2022/06/28 11:32:15;;;;;;;;;;;11.10;99.90;;;;;;4994402;28;19937;-75
2022/06/28 11:34:42;;;;;;;;;;;11.20;99.90;;;;;;4994884;28;20012;-74
2022/06/28 11:37:09;;;;;;;;;;;11.20;99.90;;;;;;4994841;28;20309;-74
2022/06/28 11:39:36;;;;;;;;;;;11.20;99.90;;;;;;4994286;28;19971;-74
2022/06/28 11:42:02;;;;;;;;;;;11.20;99.90;;;;;;4994805;28;19910;-74
2022/06/28 11:44:29;;;;;;;;;;;11.20;99.90;;;;;;4994640;28;20068;-75
2022/06/28 11:46:56;;;;;;;;;;;11.20;99.90;;;;;;4994287;28;19933;-74
2022/06/28 11:49:27;;;;;;;;;;;11.20;99.90;;;;;;4994583;28;19944;-75
2022/06/28 11:51:54;;;;;;;;;;;11.10;99.90;;;;;;4994421;28;19910;-74
2022/06/28 11:54:21;;;;;;;;;;;11.10;99.90;;;;;;4994182;28;19917;-75
2022/06/28 11:56:48;;;;;;;;;;;11.10;99.90;;;;;;4994264;28;20332;-75
2022/06/28 11:59:15;;;;;;;;;;;11.10;99.90;;;;;;4994309;28;20174;-74
2022/06/28 12:01:42;;;;;;;;;;;11.10;99.90;;;;;;4993752;28;19921;-75
2022/06/28 12:04:12;;;;;;;;;;;11.10;99.90;;;;;;4994352;28;19914;-74
2022/06/28 12:06:43;;;;;;;;;;;11.10;99.90;;;;;;4994310;28;19910;-75
2022/06/28 12:09:11;;;;;;;;;;;11.10;99.90;;;;;;4994332;28;19914;-74
2022/06/28 12:11:44;;;;;;;;;;;11.10;99.90;;;;;;4994001;28;19945;-75
2022/06/28 12:14:18;;;;;;;;;;;11.10;99.90;;;;;;4994253;28;19967;-75
2022/06/28 12:16:49;;;;;;;;;;;11.10;99.90;;;;;;4993816;28;19916;-74
2022/06/28 12:19:18;;;;;;;;;;;11.10;99.90;;;;;;4993722;28;20020;-74
2022/06/28 12:21:59;;;;;;;;;;;11.10;99.90;;;;;;4993867;28;19914;-74
2022/06/28 12:24:43;;;;;;;;;;;11.20;99.90;;;;;;4994066;28;20008;-75
2022/06/28 12:27:10;;;;;;;;;;;11.20;99.90;;;;;;4993908;28;20290;-74
2022/06/28 12:29:37;;;;;;;;;;;11.20;99.90;;;;;;4993647;28;19910;-75
2022/06/28 12:32:04;;;;;;;;;;;11.20;99.90;;;;;;4993071;28;19910;-75
2022/06/28 12:34:31;;;;;;;;;;;11.20;99.90;;;;;;4993392;28;19948;-75
2022/06/28 12:36:58;;;;;;;;;;;11.10;99.90;;;;;;4993852;28;19993;-74
2022/06/28 12:39:25;;;;;;;;;;;11.20;99.90;;;;;;4993618;28;19957;-75
2022/06/28 12:41:52;;;;;;;;;;;11.20;99.90;;;;;;4993499;28;19997;-74
2022/06/28 12:44:18;;;;;;;;;;;11.10;99.90;;;;;;4993709;28;19972;-75
2022/06/28 12:46:45;;;;;;;;;;;11.20;99.90;;;;;;4992845;28;19914;-74
2022/06/28 12:49:12;;;;;;;;;;;11.20;99.90;;;;;;4993430;28;19914;-75
2022/06/28 12:51:39;;;;;;;;;;;11.20;99.90;;;;;;4992996;28;20281;-77
2022/06/28 12:54:06;;;;;;;;;;;11.20;99.90;;;;;;4993354;28;20430;-75
2022/06/28 12:56:32;;;;;;;;;;;11.20;99.90;;;;;;4992980;28;19926;-77
2022/06/28 12:58:59;;;;;;;;;;;11.20;99.90;;;;;;4992835;28;20549;-76
2022/06/28 13:01:26;;;;;;;;;;;11.20;99.90;;;;;;4993364;28;19910;-77
2022/06/28 13:03:53;;;;;;;;;;;11.10;99.90;;;;;;4993159;28;19980;-75
2022/06/28 13:06:20;;;;;;;;;;;11.10;99.90;;;;;;4993221;28;19917;-74
2022/06/28 13:08:48;;;;;;;;;;;11.10;99.90;;;;;;4993360;28;19917;-76
2022/06/28 13:11:14;;;;;;;;;;;11.10;99.90;;;;;;4993089;28;20306;-76
2022/06/28 13:13:41;;;;;;;;;;;11.20;99.90;;;;;;4992864;28;20023;-76
2022/06/28 13:16:08;;;;;;;;;;;11.20;99.90;;;;;;4993153;28;20360;-76
2022/06/28 13:18:35;;;;;;;;;;;11.10;99.90;;;;;;4993008;28;19925;-77
2022/06/28 13:21:01;;;;;;;;;;;11.10;99.90;;;;;;4993094;28;19916;-75
2022/06/28 13:23:28;;;;;;;;;;;11.10;99.90;;;;;;4993100;28;19910;-76
2022/06/28 13:25:55;;;;;;;;;;;11.10;99.90;;;;;;4992610;28;19914;-74
2022/06/28 13:28:22;;;;;;;;;;;11.10;99.90;;;;;;5007883;28;19910;-77
2022/06/28 13:30:49;;;;;;;;;;;11.20;99.90;;;;;;4992975;28;19920;-74
2022/06/28 13:33:15;;;;;;;;;;;11.20;99.90;;;;;;4992797;28;19917;-75
2022/06/28 13:35:43;;;;;;;;;;;11.20;99.90;;;;;;4992631;28;19920;-75
2022/06/28 13:38:13;;;;;;;;;;;11.20;99.90;;;;;;4992384;28;19925;-74
2022/06/28 13:40:40;;;;;;;;;;;11.20;99.90;;;;;;4992820;28;19921;-76
2022/06/28 13:45:52;;;;;;;;;;;11.20;99.90;;;;;;4992339;28;20008;-74
2022/06/28 13:48:18;;;;;;;;;;;11.20;99.90;;;;;;4992526;28;19947;-74
2022/06/28 13:50:45;;;;;;;;;;;11.20;99.90;;;;;;4992257;28;19920;-75
2022/06/28 13:53:12;;;;;;;;;;;11.20;99.90;;;;;;4992710;28;19914;-76
2022/06/28 13:55:40;;;;;;;;;;;11.20;99.90;;;;;;4992055;28;19922;-76
2022/06/28 13:58:06;;;;;;;;;;;11.20;99.90;;;;;;4992255;28;19925;-76
2022/06/28 14:00:33;;;;;;;;;;;11.20;99.90;;;;;;4992405;28;19910;-76
2022/06/28 14:03:00;;;;;;;;;;;11.20;99.90;;;;;;4992251;28;19910;-76
2022/06/28 14:05:26;;;;;;;;;;;11.30;99.90;;;;;;5007045;28;20361;-77
2022/06/28 14:07:53;;;;;;;;;;;11.30;99.90;;;;;;4992082;28;19910;-75
2022/06/28 14:10:20;;;;;;;;;;;11.30;99.90;;;;;;4992177;28;19917;-75
2022/06/28 14:12:47;;;;;;;;;;;11.30;99.90;;;;;;4992029;28;19910;-75
2022/06/28 14:15:13;;;;;;;;;;;11.40;99.90;;;;;;4992181;28;20000;-73
2022/06/28 14:17:43;;;;;;;;;;;11.40;99.90;;;;;;4991600;28;19925;-77
2022/06/28 14:20:10;;;;;;;;;;;11.40;99.90;;;;;;4992123;28;19973;-77
2022/06/28 14:22:37;;;;;;;;;;;11.40;99.90;;;;;;4992098;28;20298;-76
2022/06/28 14:25:04;;;;;;;;;;;11.50;99.90;;;;;;4992075;28;19910;-76
2022/06/28 14:27:30;;;;;;;;;;;11.40;99.90;;;;;;4991728;28;19916;-74
2022/06/28 14:29:57;;;;;;;;;;;11.50;99.90;;;;;;4991492;28;19922;-77
2022/06/28 14:32:24;;;;;;;;;;;11.50;99.90;;;;;;4991919;28;20292;-77
2022/06/28 14:34:50;;;;;;;;;;;11.40;99.90;;;;;;4991852;28;20317;-77